Time;durP1;ratioP1;P1;durP2;ratioP2;P2;SDS_P1;SDS_P2;PMS_P1;PMS_P2;Temp;Humidity;BMP_temperature;BMP_pressure;BME280_temperature;BME280_humidity;BME280_pressure;Samples;Min_cycle;Max_cycle;Signal;HPM_P1;HPM_P2
2022/06/15 00:01:49;;;;;;;9.83;4.83;;;;;;;15.85;51.81;100776.55;123706;1099;104332;-78
2022/06/15 00:04:18;;;;;;;8.43;4.27;;;;;;;15.83;51.79;100772.08;123617;1099;105389;-77
2022/06/15 00:06:46;;;;;;;10.07;4.30;;;;;;;15.80;52.60;100773.81;123646;1099;104253;-78
2022/06/15 00:09:15;;;;;;;11.43;4.40;;;;;;;15.75;51.74;100767.52;123528;1099;104239;-77
2022/06/15 00:11:45;;;;;;;7.43;3.60;;;;;;;15.74;52.85;100773.67;123629;1099;104320;-77
2022/06/15 00:14:17;;;;;;;8.17;3.40;;;;;;;15.73;52.83;100769.23;123352;1099;104306;-77
2022/06/15 00:16:45;;;;;;;9.23;3.67;;;;;;;15.73;51.90;100765.70;123621;1099;104280;-78
2022/06/15 00:19:14;;;;;;;7.33;3.27;;;;;;;15.72;52.28;100759.53;123681;1099;104287;-78
2022/06/15 00:21:43;;;;;;;8.87;3.80;;;;;;;15.72;52.02;100763.91;123550;1099;104238;-78
2022/06/15 00:24:12;;;;;;;10.37;4.07;;;;;;;15.71;52.92;100757.73;123585;1099;105050;-78
2022/06/15 00:26:42;;;;;;;8.03;3.90;;;;;;;15.70;53.06;100753.30;123617;1099;104351;-78
2022/06/15 00:29:11;;;;;;;7.20;4.13;;;;;;;15.71;52.41;100760.38;123794;1099;104332;-77
2022/06/15 00:31:40;;;;;;;9.47;4.33;;;;;;;15.69;53.25;100762.12;123634;1099;104296;-78
2022/06/15 00:34:09;;;;;;;13.00;4.87;;;;;;;15.67;53.55;100761.17;123448;1099;104406;-78
2022/06/15 00:36:38;;;;;;;10.50;5.40;;;;;;;15.63;53.18;100762.87;123766;1099;104451;-77
2022/06/15 00:39:06;;;;;;;13.85;4.90;;;;;;;15.62;54.30;100762.84;123550;1099;104396;-77
2022/06/15 00:41:37;;;;;;;12.73;5.13;;;;;;;15.60;53.37;100764.59;123761;1099;104357;-77
2022/06/15 00:44:34;;;;;;;13.07;5.83;;;;;;;15.56;53.81;100762.73;123565;1099;104460;-77
2022/06/15 00:47:11;;;;;;;13.97;6.40;;;;;;;15.50;54.55;100773.19;123453;1099;104351;-77
2022/06/15 00:49:45;;;;;;;17.17;6.83;;;;;;;15.44;54.04;100769.56;123701;1099;104297;-78
2022/06/15 00:52:14;;;;;;;;;;;;;;;15.40;54.36;100764.19;123643;1099;104322;-77
2022/06/15 00:54:46;;;;;;;15.97;6.77;;;;;;;15.39;55.42;100762.39;123814;1099;104305;-78
2022/06/15 00:57:15;;;;;;;15.07;7.70;;;;;;;15.38;54.38;100773.81;123773;1099;104291;-77
2022/06/15 00:59:51;;;;;;;18.03;8.23;;;;;;;15.37;54.64;100764.12;123699;1099;104696;-78
2022/06/15 01:02:20;;;;;;;19.83;9.30;;;;;;;15.35;54.54;100769.37;123460;1099;104338;-77
2022/06/15 01:04:54;;;;;;;22.00;9.60;;;;;;;15.36;54.72;100770.27;123732;1099;104361;-79
2022/06/15 01:07:44;;;;;;;19.77;9.90;;;;;;;15.34;54.85;100770.23;123623;1099;104377;-78
2022/06/15 01:10:24;;;;;;;22.83;10.80;;;;;;;15.33;54.38;100767.55;123516;1099;104239;-78
2022/06/15 01:13:07;;;;;;;23.10;11.43;;;;;;;15.34;53.98;100772.87;123655;1099;104242;-77
2022/06/15 01:15:45;;;;;;;23.83;11.60;;;;;;;15.33;54.45;100771.08;123351;1099;104334;-78
2022/06/15 01:18:29;;;;;;;23.33;10.97;;;;;;;15.35;53.92;100774.67;123697;1099;104521;-78
2022/06/15 01:21:11;;;;;;;23.65;11.48;;;;;;;15.42;53.96;100779.20;123648;1099;104213;-77
2022/06/15 01:24:16;;;;;;;21.50;10.23;;;;;;;15.50;53.87;100786.41;123542;1099;104240;-77
2022/06/15 01:27:17;;;;;;;22.10;10.43;;;;;;;15.52;54.13;100784.67;123738;1099;104317;-77
2022/06/15 01:30:18;;;;;;;22.00;10.03;;;;;;;15.52;53.82;100782.03;123639;1098;104297;-78
2022/06/15 01:33:00;;;;;;;19.07;9.77;;;;;;;15.51;53.92;100782.91;123304;1099;104351;-77
2022/06/15 01:35:52;;;;;;;20.10;9.93;;;;;;;15.51;54.37;100781.16;123628;1099;104246;-77
2022/06/15 01:38:31;;;;;;;22.17;10.97;;;;;;;15.49;54.49;100780.23;123683;1099;104280;-78
2022/06/15 01:41:10;;;;;;;21.90;10.43;;;;;;;15.45;53.58;100792.48;123651;1099;104336;-77
2022/06/15 01:43:47;;;;;;;23.93;10.90;;;;;;;15.43;54.45;100788.05;123676;1099;120033;-78
2022/06/15 01:46:17;;;;;;;24.03;11.10;;;;;;;15.38;54.83;100785.31;123603;1099;104290;-78
2022/06/15 01:48:50;;;;;;;24.17;10.80;;;;;;;15.36;54.45;100781.72;123730;1099;104242;-78
2022/06/15 01:51:23;;;;;;;21.83;9.77;;;;;;;15.32;54.55;100787.83;123677;1098;104242;-78
2022/06/15 01:54:00;;;;;;;19.77;9.47;;;;;;;15.29;54.35;100795.69;123601;1099;104322;-78
2022/06/15 01:56:35;;;;;;;17.43;8.40;;;;;;;15.25;54.32;100789.45;123441;1098;104255;-77
2022/06/15 01:59:12;;;;;;;17.10;8.37;;;;;;;15.22;54.88;100796.41;123345;1102;104562;-77
2022/06/15 02:01:53;;;;;;;17.57;8.17;;;;;;;15.18;54.46;100794.58;123486;1102;104687;-77
2022/06/15 02:04:33;;;;;;;18.30;7.90;;;;;;;15.13;54.03;100804.13;123543;1102;110538;-78
2022/06/15 02:07:22;;;;;;;17.00;7.27;;;;;;;15.09;53.90;100803.19;123403;1102;104422;-78
2022/06/15 02:09:58;;;;;;;14.47;6.97;;;;;;;15.06;54.22;100804.00;123454;1102;104360;-77
2022/06/15 02:12:37;;;;;;;15.27;6.53;;;;;;;15.04;54.17;100805.73;123389;1102;104453;-77
2022/06/15 02:15:11;;;;;;;17.43;6.73;;;;;;;15.03;55.17;100805.69;123421;1102;104386;-78
2022/06/15 02:17:45;;;;;;;13.60;6.03;;;;;;;15.01;54.76;100805.66;123360;1102;104376;-77
2022/06/15 02:20:18;;;;;;;12.97;6.10;;;;;;;15.01;54.32;100805.66;123372;1102;104907;-78
2022/06/15 02:22:50;;;;;;;14.80;6.20;;;;;;;15.00;53.90;100802.98;123361;1102;104506;-77
2022/06/15 02:25:25;;;;;;;11.80;5.57;;;;;;;14.97;54.17;100811.72;123498;1102;104371;-78
2022/06/15 02:27:57;;;;;;;12.57;5.70;;;;;;;14.91;54.99;100814.22;123468;1102;104443;-77
2022/06/15 02:30:28;;;;;;;13.57;5.80;;;;;;;14.86;54.30;100805.30;123625;1099;104553;-77
2022/06/15 02:33:10;;;;;;;10.03;5.37;;;;;;;14.81;54.29;100814.88;123669;1099;104239;-77
2022/06/15 02:35:40;;;;;;;12.90;5.50;;;;;;;14.78;54.61;100817.45;123605;1099;104379;-77
2022/06/15 02:38:14;;;;;;;13.23;5.40;;;;;;;14.74;54.88;100819.14;123427;1099;104459;-78
2022/06/15 02:40:43;;;;;;;15.77;5.70;;;;;;;14.75;55.45;100823.55;123420;1099;104328;-78
2022/06/15 02:43:14;;;;;;;12.17;5.07;;;;;;;14.73;55.23;100819.98;123459;1099;104274;-77
2022/06/15 02:45:47;;;;;;;10.98;4.90;;;;;;;14.72;55.49;100824.38;123754;1099;104268;-77
2022/06/15 02:48:18;;;;;;;11.07;4.80;;;;;;;14.71;54.94;100829.63;123891;1099;104360;-78
2022/06/15 02:50:59;;;;;;;13.87;4.90;;;;;;;14.72;55.02;100827.02;123805;1099;104336;-77
2022/06/15 02:53:31;;;;;;;10.30;4.90;;;;;;;14.74;55.01;100830.59;123827;1099;104274;-78
2022/06/15 02:56:02;;;;;;;13.10;4.90;;;;;;;14.77;54.95;100834.14;123524;1099;104230;-78
2022/06/15 02:58:34;;;;;;;10.80;4.70;;;;;;;14.78;55.48;100838.58;123541;1099;104386;-78
2022/06/15 03:01:04;;;;;;;11.67;4.90;;;;;;;14.78;54.94;100835.94;123785;1099;104405;-78
2022/06/15 03:03:35;;;;;;;11.60;4.70;;;;;;;14.78;55.22;100841.23;123663;1099;104309;-78
2022/06/15 03:06:14;;;;;;;9.53;4.67;;;;;;;14.78;56.00;100847.39;123946;1099;104191;-78
2022/06/15 03:08:44;;;;;;;13.50;4.97;;;;;;;14.80;56.13;100842.14;123868;1099;104360;-78
2022/06/15 03:11:25;;;;;;;12.83;5.60;;;;;;;14.82;55.99;100846.63;123905;1099;104289;-77
2022/06/15 03:13:55;;;;;;;11.07;4.70;;;;;;;14.83;56.29;100840.45;123521;1099;104267;-78
2022/06/15 03:16:24;;;;;;;14.43;5.37;;;;;;;14.87;55.71;100849.38;123378;1102;104325;-77
2022/06/15 03:18:53;;;;;;;10.33;5.10;;;;;;;14.89;55.75;100845.89;123698;1099;104238;-78
2022/06/15 03:21:22;;;;;;;13.47;5.50;;;;;;;14.91;56.25;100852.12;123503;1102;104353;-78
2022/06/15 03:23:52;;;;;;;15.40;5.65;;;;;;;14.94;56.22;100845.11;123453;1102;104434;-78
2022/06/15 03:26:20;;;;;;;11.50;5.37;;;;;;;14.96;56.41;100851.32;123422;1102;104290;-79
2022/06/15 03:28:49;;;;;;;14.40;5.17;;;;;;;15.00;55.43;100851.42;123423;1102;104281;-78
2022/06/15 03:31:19;;;;;;;14.80;5.20;;;;;;;15.07;56.34;100856.01;123395;1102;104341;-78
2022/06/15 03:33:48;;;;;;;10.27;5.23;;;;;;;15.10;56.07;100860.48;123639;1101;104431;-78
2022/06/15 03:36:21;;;;;;;15.10;5.23;;;;;;;15.10;56.54;100864.01;123466;1102;104377;-78
2022/06/15 03:38:50;;;;;;;13.23;5.40;;;;;;;15.13;55.85;100865.84;123396;1102;104399;-79
2022/06/15 03:41:23;;;;;;;10.83;5.27;;;;;;;15.16;56.16;100862.35;123397;1100;104533;-78
2022/06/15 03:43:53;;;;;;;11.60;5.40;;;;;;;15.18;56.22;100869.47;123425;1102;104425;-78
2022/06/15 03:46:25;;;;;;;11.90;5.17;;;;;;;15.23;56.31;100870.45;123516;1100;110496;-79
2022/06/15 03:48:56;;;;;;;14.30;5.30;;;;;;;15.30;55.84;100867.95;123363;1099;104418;-78
2022/06/15 03:51:25;;;;;;;12.97;5.23;;;;;;;15.34;55.44;100870.70;123310;1101;104744;-78
2022/06/15 03:53:58;;;;;;;16.20;5.27;;;;;;;15.41;55.82;100869.08;123461;1099;104404;-78
2022/06/15 03:56:42;;;;;;;11.73;5.00;;;;;;;15.44;56.34;100869.14;123696;1099;104367;-78
2022/06/15 03:59:13;;;;;;;12.80;5.47;;;;;;;15.48;55.81;100872.77;123363;1099;104418;-78
2022/06/15 04:01:45;;;;;;;11.30;5.57;;;;;;;15.50;55.95;100874.56;123704;1099;104271;-77
2022/06/15 04:04:15;;;;;;;10.80;5.30;;;;;;;15.55;55.46;100885.24;123633;1098;104245;-78
2022/06/15 04:06:45;;;;;;;11.35;5.10;;;;;;;15.58;55.99;100877.37;123746;1099;104408;-78
2022/06/15 04:09:20;;;;;;;10.83;4.93;;;;;;;15.62;56.16;100873.95;123862;1098;104341;-77
2022/06/15 04:11:59;;;;;;;11.33;5.33;;;;;;;15.67;55.67;100877.57;123578;1101;104338;-78
2022/06/15 04:14:32;;;;;;;13.00;5.50;;;;;;;15.74;55.52;100873.32;123867;1099;104283;-78
2022/06/15 04:17:06;;;;;;;14.20;5.57;;;;;;;15.79;56.11;100869.92;124043;1099;119114;-78
2022/06/15 04:20:36;;;;;;;13.70;5.70;;;;;;;15.83;55.73;100876.16;123551;1102;104626;-78
2022/06/15 04:23:14;;;;;;;9.70;5.13;;;;;;;15.89;55.18;100872.75;123696;1102;104465;-78
2022/06/15 04:25:46;;;;;;;14.63;5.87;;;;;;;15.94;56.04;100877.28;123834;1102;104427;-78
2022/06/15 04:28:17;;;;;;;12.70;5.77;;;;;;;16.03;55.43;100876.55;123806;1102;104230;-78
2022/06/15 04:30:47;;;;;;;14.80;5.80;;;;;;;16.11;55.95;100874.05;123553;1102;104306;-81
2022/06/15 04:33:16;;;;;;;15.23;5.73;;;;;;;16.16;55.30;100872.41;123509;1102;104357;-79
2022/06/15 04:35:46;;;;;;;15.07;6.00;;;;;;;16.23;55.64;100873.41;123527;1102;104430;-78
2022/06/15 04:38:18;;;;;;;12.97;5.60;;;;;;;16.26;55.29;100876.99;123497;1102;104405;-78
2022/06/15 04:40:59;;;;;;;15.30;6.00;;;;;;;16.31;54.78;100877.08;123623;1102;104245;-77
2022/06/15 04:43:28;;;;;;;12.90;6.15;;;;;;;16.37;55.43;100877.19;123489;1102;104447;-78
2022/06/15 04:45:57;;;;;;;16.63;6.33;;;;;;;16.44;54.51;100878.18;123477;1102;104271;-77
2022/06/15 04:48:27;;;;;;;12.67;5.83;;;;;;;16.49;54.64;100887.13;123538;1102;105047;-77
2022/06/15 04:50:56;;;;;;;14.65;6.10;;;;;;;16.55;54.97;100887.23;123602;1102;104303;-77
2022/06/15 04:53:30;;;;;;;15.30;5.97;;;;;;;16.62;54.86;100888.22;123566;1102;104354;-78
2022/06/15 04:56:02;;;;;;;15.53;5.83;;;;;;;16.67;54.61;100891.83;123550;1102;104443;-77
2022/06/15 04:58:32;;;;;;;12.67;5.70;;;;;;;16.75;54.96;100905.20;123671;1102;104374;-77
2022/06/15 05:01:02;;;;;;;10.73;5.23;;;;;;;16.81;54.46;100894.71;123915;1102;104166;-77
2022/06/15 05:03:31;;;;;;;15.80;6.27;;;;;;;16.87;54.13;100901.03;123826;1099;104702;-78
2022/06/15 05:06:10;;;;;;;16.50;5.93;;;;;;;16.96;54.67;100907.38;123674;1099;104274;-77
2022/06/15 05:08:39;;;;;;;17.33;5.53;;;;;;;17.02;53.85;100910.12;124228;1098;104277;-78
2022/06/15 05:11:08;;;;;;;12.73;4.80;;;;;;;17.07;53.59;100909.30;124090;1098;104392;-78
2022/06/15 05:13:40;;;;;;;11.17;4.73;;;;;;;17.15;53.93;100911.19;124226;1099;104215;-77
2022/06/15 05:16:09;;;;;;;14.83;5.17;;;;;;;17.20;53.85;100915.71;124476;1098;104163;-76
2022/06/15 05:18:38;;;;;;;12.93;4.53;;;;;;;17.29;53.87;100916.70;124708;1099;104233;-78
2022/06/15 05:21:14;;;;;;;16.03;4.43;;;;;;;17.35;53.38;100908.84;124207;1099;104472;-78
2022/06/15 05:24:21;;;;;;;9.97;4.60;;;;;;;17.43;53.28;100913.36;124711;1099;104377;-79
2022/06/15 05:26:56;;;;;;;13.10;4.30;;;;;;;17.55;52.96;100915.31;125166;1099;104294;-79
2022/06/15 05:29:26;;;;;;;13.03;4.70;;;;;;;17.64;52.72;100910.98;124358;1099;103667;-78
2022/06/15 05:32:10;;;;;;;11.50;4.47;;;;;;;17.74;52.84;100915.56;124552;1099;104239;-77
2022/06/15 05:34:42;;;;;;;15.97;4.23;;;;;;;17.81;52.50;100909.47;124738;1099;104380;-78
2022/06/15 05:37:12;;;;;;;11.70;4.47;;;;;;;17.88;53.05;100907.77;124315;1102;103751;-79
2022/06/15 05:39:43;;;;;;;10.50;3.63;;;;;;;17.94;52.33;100910.54;124128;1102;104417;-79
2022/06/15 05:42:13;;;;;;;10.83;3.83;;;;;;;18.03;52.55;100915.95;124315;1102;104491;-79
2022/06/15 05:47:29;;;;;;;8.10;3.50;;;;;;;18.20;51.93;100913.50;126135;1102;102769;-79
2022/06/15 05:50:25;;;;;;;8.00;3.70;;;;;;;18.29;51.60;100918.00;124332;1103;104534;-79
2022/06/15 05:53:09;;;;;;;9.80;3.73;;;;;;;18.38;51.33;100912.78;124278;1102;104421;-79
2022/06/15 05:55:43;;;;;;;12.57;4.43;;;;;;;18.44;51.45;100914.63;124338;1102;104386;-80
2022/06/15 05:58:13;;;;;;;10.27;3.70;;;;;;;18.50;51.52;100906.71;124121;1102;104348;-81
2022/06/15 06:00:43;;;;;;;17.50;4.40;;;;;;;18.58;51.28;100914.76;124113;1102;104563;-79
2022/06/15 06:03:13;;;;;;;12.40;4.00;;;;;;;18.66;51.24;100913.94;124146;1102;104425;-79
2022/06/15 06:05:48;;;;;;;10.23;3.33;;;;;;;18.74;50.97;100915.78;124018;1102;104293;-80
2022/06/15 06:08:20;;;;;;;4.87;3.10;;;;;;;18.81;50.44;100913.19;124301;1102;104384;-79
2022/06/15 06:10:51;;;;;;;7.13;2.97;;;;;;;18.91;50.08;100914.19;124531;1099;104226;-78
2022/06/15 06:13:26;;;;;;;6.77;2.53;;;;;;;19.02;49.74;100912.48;124559;1102;104367;-79
2022/06/15 06:15:57;;;;;;;5.93;2.60;;;;;;;19.14;50.06;100916.14;124612;1099;104182;-81
2022/06/15 06:18:33;;;;;;;7.03;2.80;;;;;;;19.23;49.12;100916.20;126299;1099;102773;-79
2022/06/15 06:21:06;;;;;;;5.35;2.55;;;;;;;19.32;49.07;100910.03;125512;1099;103246;-79
2022/06/15 06:23:47;;;;;;;7.17;2.57;;;;;;;19.37;49.55;100911.86;124707;1099;104986;-79
2022/06/15 06:26:23;;;;;;;4.23;2.27;;;;;;;19.45;49.19;100917.23;124851;1099;104178;-80
2022/06/15 06:28:57;;;;;;;4.73;2.47;;;;;;;19.52;48.40;100915.48;124520;1099;104153;-79
2022/06/15 06:31:30;;;;;;;7.77;2.90;;;;;;;19.57;47.28;100913.72;126811;1099;103151;-79
2022/06/15 06:34:04;;;;;;;3.27;2.60;;;;;;;19.59;46.21;100914.64;126993;1098;104162;-78
2022/06/15 06:36:42;;;;;;;4.75;2.45;;;;;;;19.68;46.57;100913.78;124426;1099;104705;-80
2022/06/15 06:39:15;;;;;;;10.70;2.43;;;;;;;19.78;46.81;100909.44;124973;1099;102919;-79
2022/06/15 06:41:46;;;;;;;;;;;;;;;19.89;43.37;100911.25;124689;1099;104200;-80
2022/06/15 06:44:18;;;;;;;4.17;1.93;;;;;;;19.95;45.11;100910.39;124506;1099;104164;-79
2022/06/15 06:46:50;;;;;;;2.77;2.03;;;;;;;20.01;44.96;100905.09;124486;1102;104281;-77
2022/06/15 06:49:25;;;;;;;4.30;2.17;;;;;;;20.11;44.89;100912.20;126280;1099;103385;-78
2022/06/15 06:52:00;;;;;;;4.73;1.83;;;;;;;20.18;44.44;100904.23;124495;1099;104415;-79
2022/06/15 06:54:35;;;;;;;5.30;2.40;;;;;;;20.25;43.33;100911.36;124275;1099;104332;-80
2022/06/15 06:57:05;;;;;;;4.67;2.00;;;;;;;20.37;43.78;100907.85;124371;1099;104229;-79
2022/06/15 06:59:40;;;;;;;10.25;2.10;;;;;;;20.50;44.41;100904.30;124423;1099;104147;-79
2022/06/15 07:02:10;;;;;;;3.00;2.20;;;;;;;20.60;42.77;100907.85;124688;1099;102353;-79
2022/06/15 07:04:46;;;;;;;2.50;1.83;;;;;;;20.70;43.04;100912.35;124725;1099;104223;-77
2022/06/15 07:07:16;;;;;;;3.00;1.80;;;;;;;20.81;41.95;100913.23;124749;1099;102840;-77
2022/06/15 07:09:51;;;;;;;2.53;1.90;;;;;;;20.94;42.00;100915.91;124837;1099;104248;-79
2022/06/15 07:12:24;;;;;;;6.10;2.57;;;;;;;21.08;41.89;100921.23;124525;1099;104312;-81
2022/06/15 07:14:53;;;;;;;5.93;2.00;;;;;;;21.18;41.23;100918.55;124938;1099;104293;-80
2022/06/15 07:17:33;;;;;;;4.27;1.97;;;;;;;21.30;40.99;100912.32;124576;1099;102623;-78
2022/06/15 07:20:08;;;;;;;8.70;1.83;;;;;;;21.43;40.08;100913.17;125732;1099;104213;-78
2022/06/15 07:22:59;;;;;;;2.53;1.80;;;;;;;21.49;38.47;100914.98;124985;1098;103323;-78
2022/06/15 07:25:34;;;;;;;1.97;1.40;;;;;;;21.65;38.59;100922.03;124831;1099;104293;-78
2022/06/15 07:28:09;;;;;;;6.23;1.77;;;;;;;21.82;39.85;100908.63;126300;1098;104159;-79
2022/06/15 07:30:44;;;;;;;2.53;1.60;;;;;;;22.02;38.40;100916.55;124503;1103;104226;-77
2022/06/15 07:33:29;;;;;;;1.83;1.60;;;;;;;22.21;39.24;100903.97;124550;1102;103473;-79
2022/06/15 07:36:03;;;;;;;5.50;1.70;;;;;;;22.41;37.81;100903.88;124921;1099;103900;-78
2022/06/15 07:38:35;;;;;;;6.00;1.80;;;;;;;22.67;38.22;100901.91;124577;1099;104325;-77
2022/06/15 07:41:05;;;;;;;2.67;1.77;;;;;;;22.81;37.93;100900.00;124563;1099;102580;-77
2022/06/15 07:43:39;;;;;;;6.60;1.92;;;;;;;22.93;37.49;100905.25;124398;1099;104249;-77
2022/06/15 07:46:10;;;;;;;3.73;2.00;;;;;;;23.08;37.25;100898.00;124523;1099;104249;-77
2022/06/15 07:51:36;;;;;;;4.67;1.80;;;;;;;23.47;36.07;100895.84;124946;1099;104294;-79
2022/06/15 07:54:10;;;;;;;2.90;1.65;;;;;;;23.59;35.54;100895.70;124353;1099;104343;-78
2022/06/15 07:56:42;;;;;;;7.67;2.00;;;;;;;23.81;35.32;100898.09;124933;1098;104165;-78
2022/06/15 07:59:13;;;;;;;3.90;1.80;;;;;;;23.92;35.45;100893.53;124554;1102;103609;-78
2022/06/15 08:01:43;;;;;;;7.10;1.90;;;;;;;24.05;33.85;100900.48;126301;1099;101572;-79
2022/06/15 08:04:18;;;;;;;6.30;1.80;;;;;;;24.20;34.73;100888.67;125681;1099;104172;-78
2022/06/15 08:06:49;;;;;;;9.30;2.33;;;;;;;24.33;33.64;100899.22;124972;1099;102761;-79
2022/06/15 08:09:22;;;;;;;6.53;2.20;;;;;;;24.34;33.73;100898.28;124436;1098;104191;-79
2022/06/15 08:14:43;;;;;;;4.17;1.83;;;;;;;24.40;34.38;100892.83;124497;1099;104227;-78
2022/06/15 08:17:16;;;;;;;4.00;2.10;;;;;;;24.46;31.50;100891.86;127024;1098;102149;-79
2022/06/15 08:19:50;;;;;;;5.45;2.00;;;;;;;24.46;32.98;100897.23;126246;1099;101390;-79
2022/06/15 08:22:19;;;;;;;;;;;;;;;24.39;30.66;100900.00;126035;1099;104670;-78
2022/06/15 08:24:49;;;;;;;3.53;1.90;;;;;;;24.40;32.33;100890.15;124547;1099;104379;-79
2022/06/15 08:27:24;;;;;;;5.77;2.13;;;;;;;24.60;32.07;100892.55;126424;1099;101909;-79
2022/06/15 08:29:57;;;;;;;3.90;2.00;;;;;;;24.67;32.20;100894.23;124523;1102;104252;-80
2022/06/15 08:32:30;;;;;;;7.80;2.25;;;;;;;24.80;31.79;100905.64;124775;1099;104153;-78
2022/06/15 08:35:13;;;;;;;5.20;1.67;;;;;;;24.83;31.28;100885.94;126724;1098;103383;-79
2022/06/15 08:37:45;;;;;;;5.00;2.00;;;;;;;24.80;30.30;100888.67;124922;1099;104162;-80
2022/06/15 08:40:18;;;;;;;2.92;1.67;;;;;;;24.72;30.85;100881.63;124705;1099;103401;-79
2022/06/15 08:42:57;;;;;;;9.97;2.40;;;;;;;24.78;31.32;100890.47;124693;1099;104158;-78
2022/06/15 08:45:38;;;;;;;3.23;1.90;;;;;;;24.96;30.98;100895.52;125057;1099;104325;-79
2022/06/15 08:48:30;;;;;;;6.00;2.10;;;;;;;25.01;30.51;100893.67;125289;1099;104169;-79
2022/06/15 08:51:09;;;;;;;4.10;1.87;;;;;;;24.90;30.43;100884.89;124536;1102;103743;-81
2022/06/15 08:53:48;;;;;;;3.47;1.97;;;;;;;24.95;30.67;100893.77;124529;1102;103594;-79
2022/06/15 08:56:25;;;;;;;6.30;2.00;;;;;;;25.04;31.13;100898.08;124611;1102;104278;-79
2022/06/15 08:59:09;;;;;;;4.63;2.10;;;;;;;25.11;30.89;100889.88;124471;1102;103359;-80
2022/06/15 09:02:00;;;;;;;5.67;1.97;;;;;;;25.21;30.92;100892.39;124477;1100;104376;-80
2022/06/15 09:04:38;;;;;;;5.20;2.07;;;;;;;25.25;30.68;100896.81;125297;1101;106979;-82
2022/06/15 09:07:32;;;;;;;4.00;1.97;;;;;;;25.34;30.84;100902.04;125239;1102;103701;-82
2022/06/15 09:10:21;;;;;;;7.45;1.87;;;;;;;25.34;30.47;100896.66;124537;1101;104150;-79
2022/06/15 09:13:07;;;;;;;4.07;1.63;;;;;;;25.22;29.78;100912.98;125074;1102;102886;-79
2022/06/15 09:15:47;;;;;;;6.30;2.40;;;;;;;25.27;29.86;100917.36;124455;1102;102802;-78
2022/06/15 09:18:26;;;;;;;3.90;1.90;;;;;;;25.36;30.17;100905.57;124583;1102;103157;-79
2022/06/15 09:21:02;;;;;;;4.53;2.00;;;;;;;25.48;30.44;100910.70;124219;1102;104332;-78
2022/06/15 09:23:40;;;;;;;6.13;1.80;;;;;;;25.72;30.33;100907.56;124528;1101;102708;-79
2022/06/15 09:26:18;;;;;;;3.07;2.10;;;;;;;25.89;30.36;100902.70;124594;1102;102887;-78
2022/06/15 09:29:03;;;;;;;5.40;2.30;;;;;;;25.95;30.08;100899.89;124507;1102;104382;-77
2022/06/15 09:31:42;;;;;;;4.80;1.87;;;;;;;25.96;29.36;100903.45;126105;1102;102740;-80
2022/06/15 09:34:19;;;;;;;3.33;1.97;;;;;;;26.14;29.43;100895.02;126145;1102;102788;-80
2022/06/15 09:36:54;;;;;;;6.90;2.20;;;;;;;26.32;29.49;100884.77;126156;1102;101934;-79
2022/06/15 09:39:26;;;;;;;6.67;2.37;;;;;;;26.44;29.32;100900.59;126140;1102;103050;-79
2022/06/15 09:42:03;;;;;;;6.95;2.10;;;;;;;26.30;29.52;100900.05;124571;1102;104166;-79
2022/06/15 09:44:43;;;;;;;3.10;2.00;;;;;;;26.09;29.07;100896.06;124669;1102;104823;-79
2022/06/15 09:47:31;;;;;;;3.60;2.10;;;;;;;25.88;29.22;100902.74;126195;1102;102535;-80
2022/06/15 09:50:11;;;;;;;3.63;2.20;;;;;;;25.79;29.03;100901.16;124513;1102;104188;-77
2022/06/15 09:52:55;;;;;;;5.97;2.57;;;;;;;25.83;29.83;100884.02;126209;1102;102201;-78
2022/06/15 09:55:30;;;;;;;;;;;;;;;25.83;28.91;100898.34;125570;1099;118519;-78
2022/06/15 09:58:01;;;;;;;7.70;2.30;;;;;;;25.89;29.17;100896.45;125169;1099;103253;-78
2022/06/15 10:00:33;;;;;;;3.83;2.07;;;;;;;25.84;28.83;100891.18;124622;1102;104219;-79
2022/06/15 10:03:15;;;;;;;6.63;1.90;;;;;;;25.80;29.64;100895.75;125021;1099;102694;-78
2022/06/15 10:05:48;;;;;;;4.47;1.93;;;;;;;25.69;29.75;100897.75;124689;1099;102880;-78
2022/06/15 10:08:20;;;;;;;6.40;1.90;;;;;;;25.51;29.21;100901.72;124777;1099;103004;-79
2022/06/15 10:10:57;;;;;;;3.20;2.20;;;;;;;25.33;28.94;100892.20;124848;1102;103344;-79
2022/06/15 10:13:36;;;;;;;8.60;2.20;;;;;;;25.21;29.22;100895.08;124853;1099;104166;-79
2022/06/15 10:16:21;;;;;;;4.03;1.93;;;;;;;25.31;28.88;100902.09;124927;1099;102184;-78
2022/06/15 10:18:53;;;;;;;4.27;1.90;;;;;;;25.39;29.07;100891.20;126633;1099;102735;-79
2022/06/15 10:21:28;;;;;;;3.67;1.90;;;;;;;25.53;29.28;100885.56;126162;1099;104394;-80
2022/06/15 10:24:02;;;;;;;2.47;1.73;;;;;;;25.61;29.45;100880.91;126513;1099;102149;-80
2022/06/15 10:26:41;;;;;;;3.77;2.10;;;;;;;25.76;28.98;100877.03;126729;1099;102334;-80
2022/06/15 10:29:36;;;;;;;5.10;2.00;;;;;;;25.84;28.67;100880.42;126280;1099;102410;-80
2022/06/15 10:32:35;;;;;;;3.70;1.90;;;;;;;25.91;29.03;100873.11;126842;1099;102361;-80
2022/06/15 10:35:15;;;;;;;8.80;2.30;;;;;;;25.81;28.68;100870.61;125800;1099;104005;-80
2022/06/15 10:37:48;;;;;;;2.47;1.83;;;;;;;25.51;28.64;100872.16;124518;1099;104861;-79
2022/06/15 10:40:28;;;;;;;2.43;1.73;;;;;;;25.31;28.75;100880.61;125861;1099;104156;-79
2022/06/15 10:43:08;;;;;;;4.20;1.87;;;;;;;25.12;28.99;100880.92;124512;1098;103765;-79
2022/06/15 10:46:04;;;;;;;3.97;2.00;;;;;;;25.05;28.98;100873.01;124557;1099;102737;-79
2022/06/15 10:48:50;;;;;;;3.98;1.70;;;;;;;25.17;28.61;100869.22;126828;1099;102037;-79
2022/06/15 10:51:34;;;;;;;5.40;1.93;;;;;;;25.32;28.82;100862.69;126307;1099;103361;-79
2022/06/15 10:54:34;;;;;;;6.00;2.02;;;;;;;25.54;29.29;100855.98;126258;1099;102599;-80
2022/06/15 11:03:21;;;;;;;5.70;1.80;;;;;;;26.01;28.43;100850.52;124434;1102;103803;-78
2022/06/15 11:06:02;;;;;;;10.20;2.50;;;;;;;25.82;27.78;100849.98;125321;1102;104244;-79
2022/06/15 11:08:51;;;;;;;5.30;2.30;;;;;;;25.56;27.93;100851.45;125447;1102;104220;-80
2022/06/15 11:11:39;;;;;;;6.70;2.17;;;;;;;25.42;28.43;100840.98;125503;1102;103544;-80
2022/06/15 11:14:32;;;;;;;8.33;1.97;;;;;;;25.28;28.15;100860.06;125371;1102;104176;-78
2022/06/15 11:21:02;;;;;;;6.50;1.97;;;;;;;24.97;28.78;100858.85;125360;1102;104108;-79
2022/06/15 11:23:47;;;;;;;5.20;2.17;;;;;;;24.93;28.65;100845.48;125476;1102;102975;-78
2022/06/15 11:27:07;;;;;;;;;;;;;;;;;;;;;
2022/06/15 11:30:05;;;;;;;3.93;1.90;;;;;;;25.30;29.08;100842.10;125394;1102;103091;-80
2022/06/15 11:32:58;;;;;;;5.83;2.00;;;;;;;25.55;28.32;100846.98;125740;1099;103083;-79
2022/06/15 11:35:41;;;;;;;3.23;1.83;;;;;;;25.78;28.75;100833.05;125912;1099;103492;-81
2022/06/15 11:38:30;;;;;;;5.73;2.10;;;;;;;25.96;28.35;100846.99;125744;1099;104166;-80
2022/06/15 11:44:38;;;;;;;5.60;1.90;;;;;;;26.15;28.04;100832.25;125691;1099;104158;-80
2022/06/15 11:51:04;;;;;;;5.57;2.27;;;;;;;26.35;28.35;100838.94;125268;1102;104332;-82
2022/06/15 11:54:22;;;;;;;3.97;1.90;;;;;;;26.18;28.05;100831.30;125337;1102;103468;-80
2022/06/15 11:57:30;;;;;;;6.87;2.30;;;;;;;25.88;27.64;100836.41;125249;1102;102973;-80
2022/06/15 12:00:35;;;;;;;3.73;2.00;;;;;;;25.88;27.80;100827.47;125178;1102;102178;-80
2022/06/15 12:04:09;;;;;;;5.40;2.10;;;;;;;25.94;27.34;100836.27;125379;1102;102270;-81
2022/06/15 12:07:11;;;;;;;4.67;1.73;;;;;;;25.92;27.74;100824.69;125258;1102;104274;-81
2022/06/15 12:10:16;;;;;;;7.37;2.23;;;;;;;25.90;27.93;100839.97;125095;1105;104201;-80
2022/06/15 12:13:07;;;;;;;;;;;;;;;;;;;;;
2022/06/15 12:15:56;;;;;;;8.97;2.73;;;;;;;25.65;27.56;100835.13;125332;1102;104335;-78
2022/06/15 12:18:51;;;;;;;9.53;2.40;;;;;;;25.61;28.09;100829.86;125490;1102;103187;-81
2022/06/15 12:21:43;;;;;;;7.67;2.50;;;;;;;25.63;28.16;100833.38;125329;1102;104246;-80